sensor_id;sensor_type;location;lat;lon;timestamp;P1;durP1;ratioP1;P2;durP2;ratioP2
11731;SDS011;5922;53.734;10.258;2024-01-11T00:00:46;13.27;;;10.27;;
11731;SDS011;5922;53.734;10.258;2024-01-11T00:03:14;16.87;;;11.30;;
11731;SDS011;5922;53.734;10.258;2024-01-11T00:05:41;13.47;;;10.43;;
11731;SDS011;5922;53.734;10.258;2024-01-11T00:08:08;13.83;;;10.73;;
11731;SDS011;5922;53.734;10.258;2024-01-11T00:10:37;14.03;;;11.10;;
11731;SDS011;5922;53.734;10.258;2024-01-11T00:13:06;16.10;;;12.23;;
11731;SDS011;5922;53.734;10.258;2024-01-11T00:15:33;15.13;;;11.00;;
11731;SDS011;5922;53.734;10.258;2024-01-11T00:18:00;17.60;;;12.50;;
11731;SDS011;5922;53.734;10.258;2024-01-11T00:20:28;17.80;;;13.63;;
11731;SDS011;5922;53.734;10.258;2024-01-11T00:22:55;20.07;;;14.30;;
11731;SDS011;5922;53.734;10.258;2024-01-11T00:25:22;19.60;;;13.87;;
11731;SDS011;5922;53.734;10.258;2024-01-11T00:27:49;19.07;;;14.00;;
11731;SDS011;5922;53.734;10.258;2024-01-11T00:30:18;19.40;;;13.87;;
11731;SDS011;5922;53.734;10.258;2024-01-11T00:32:45;19.77;;;13.53;;
11731;SDS011;5922;53.734;10.258;2024-01-11T00:35:22;20.07;;;13.73;;
11731;SDS011;5922;53.734;10.258;2024-01-11T00:37:49;22.53;;;15.10;;
11731;SDS011;5922;53.734;10.258;2024-01-11T00:40:16;19.03;;;13.53;;
11731;SDS011;5922;53.734;10.258;2024-01-11T00:42:44;19.90;;;14.57;;
11731;SDS011;5922;53.734;10.258;2024-01-11T00:45:11;21.00;;;14.67;;
11731;SDS011;5922;53.734;10.258;2024-01-11T00:47:40;21.33;;;13.93;;
11731;SDS011;5922;53.734;10.258;2024-01-11T00:50:07;21.77;;;14.40;;
11731;SDS011;5922;53.734;10.258;2024-01-11T00:52:35;21.77;;;14.80;;
11731;SDS011;5922;53.734;10.258;2024-01-11T00:55:03;19.77;;;13.67;;
11731;SDS011;5922;53.734;10.258;2024-01-11T00:57:31;21.00;;;14.43;;
11731;SDS011;5922;53.734;10.258;2024-01-11T00:59:58;22.03;;;14.73;;
11731;SDS011;5922;53.734;10.258;2024-01-11T01:02:25;21.97;;;14.90;;
11731;SDS011;5922;53.734;10.258;2024-01-11T01:04:54;18.83;;;13.80;;
11731;SDS011;5922;53.734;10.258;2024-01-11T01:07:21;21.80;;;14.23;;
11731;SDS011;5922;53.734;10.258;2024-01-11T01:09:48;17.07;;;12.37;;
11731;SDS011;5922;53.734;10.258;2024-01-11T01:12:16;18.80;;;12.87;;
11731;SDS011;5922;53.734;10.258;2024-01-11T01:14:43;18.87;;;13.10;;
11731;SDS011;5922;53.734;10.258;2024-01-11T01:17:10;18.83;;;13.50;;
11731;SDS011;5922;53.734;10.258;2024-01-11T01:19:37;19.00;;;13.00;;
11731;SDS011;5922;53.734;10.258;2024-01-11T01:22:06;16.53;;;12.17;;
11731;SDS011;5922;53.734;10.258;2024-01-11T01:24:33;17.73;;;12.50;;
11731;SDS011;5922;53.734;10.258;2024-01-11T01:27:00;18.50;;;13.17;;
11731;SDS011;5922;53.734;10.258;2024-01-11T01:29:28;16.47;;;12.00;;
11731;SDS011;5922;53.734;10.258;2024-01-11T01:31:55;17.30;;;12.67;;
11731;SDS011;5922;53.734;10.258;2024-01-11T01:34:22;20.00;;;12.40;;
11731;SDS011;5922;53.734;10.258;2024-01-11T01:36:49;18.33;;;12.77;;
11731;SDS011;5922;53.734;10.258;2024-01-11T01:39:18;18.87;;;12.30;;
11731;SDS011;5922;53.734;10.258;2024-01-11T01:41:45;16.57;;;11.80;;
11731;SDS011;5922;53.734;10.258;2024-01-11T01:44:12;15.30;;;11.50;;
11731;SDS011;5922;53.734;10.258;2024-01-11T01:46:39;16.93;;;11.83;;
11731;SDS011;5922;53.734;10.258;2024-01-11T01:49:07;18.23;;;12.17;;
11731;SDS011;5922;53.734;10.258;2024-01-11T01:51:34;19.87;;;13.57;;
11731;SDS011;5922;53.734;10.258;2024-01-11T01:54:02;19.13;;;13.37;;
11731;SDS011;5922;53.734;10.258;2024-01-11T01:56:31;16.10;;;11.27;;
11731;SDS011;5922;53.734;10.258;2024-01-11T01:58:59;15.60;;;11.03;;
11731;SDS011;5922;53.734;10.258;2024-01-11T02:01:28;13.60;;;9.00;;
11731;SDS011;5922;53.734;10.258;2024-01-11T02:03:55;14.33;;;10.77;;
11731;SDS011;5922;53.734;10.258;2024-01-11T02:06:23;14.13;;;10.03;;
11731;SDS011;5922;53.734;10.258;2024-01-11T02:08:52;14.33;;;10.87;;
11731;SDS011;5922;53.734;10.258;2024-01-11T02:11:20;15.37;;;10.53;;
11731;SDS011;5922;53.734;10.258;2024-01-11T02:13:49;14.53;;;9.83;;
11731;SDS011;5922;53.734;10.258;2024-01-11T02:16:16;13.70;;;9.80;;
11731;SDS011;5922;53.734;10.258;2024-01-11T02:18:44;15.13;;;10.03;;
11731;SDS011;5922;53.734;10.258;2024-01-11T02:21:11;16.00;;;11.50;;
11731;SDS011;5922;53.734;10.258;2024-01-11T02:23:40;14.70;;;10.83;;
11731;SDS011;5922;53.734;10.258;2024-01-11T02:26:12;14.10;;;10.53;;
11731;SDS011;5922;53.734;10.258;2024-01-11T02:28:38;17.77;;;11.67;;
11731;SDS011;5922;53.734;10.258;2024-01-11T02:31:05;15.27;;;11.13;;
11731;SDS011;5922;53.734;10.258;2024-01-11T02:33:32;15.17;;;10.83;;
11731;SDS011;5922;53.734;10.258;2024-01-11T02:36:00;15.70;;;10.80;;
11731;SDS011;5922;53.734;10.258;2024-01-11T02:38:27;16.77;;;11.83;;
11731;SDS011;5922;53.734;10.258;2024-01-11T02:40:55;16.77;;;11.77;;
11731;SDS011;5922;53.734;10.258;2024-01-11T02:43:25;17.47;;;11.80;;
11731;SDS011;5922;53.734;10.258;2024-01-11T02:45:53;15.87;;;11.20;;
11731;SDS011;5922;53.734;10.258;2024-01-11T02:48:27;16.47;;;11.60;;
11731;SDS011;5922;53.734;10.258;2024-01-11T02:50:54;16.10;;;11.50;;
11731;SDS011;5922;53.734;10.258;2024-01-11T02:53:21;17.17;;;12.00;;
11731;SDS011;5922;53.734;10.258;2024-01-11T02:55:49;17.50;;;11.97;;
11731;SDS011;5922;53.734;10.258;2024-01-11T02:58:16;13.83;;;10.47;;
11731;SDS011;5922;53.734;10.258;2024-01-11T03:00:45;15.17;;;10.73;;
11731;SDS011;5922;53.734;10.258;2024-01-11T03:03:12;14.20;;;10.53;;
11731;SDS011;5922;53.734;10.258;2024-01-11T03:05:39;14.63;;;10.27;;
11731;SDS011;5922;53.734;10.258;2024-01-11T03:08:07;15.17;;;10.87;;
11731;SDS011;5922;53.734;10.258;2024-01-11T03:10:36;13.83;;;10.13;;
11731;SDS011;5922;53.734;10.258;2024-01-11T03:13:05;17.33;;;11.40;;
11731;SDS011;5922;53.734;10.258;2024-01-11T03:15:32;14.33;;;10.90;;
11731;SDS011;5922;53.734;10.258;2024-01-11T03:18:00;15.10;;;10.60;;
11731;SDS011;5922;53.734;10.258;2024-01-11T03:20:28;16.83;;;11.47;;
11731;SDS011;5922;53.734;10.258;2024-01-11T03:22:55;13.87;;;10.03;;
11731;SDS011;5922;53.734;10.258;2024-01-11T03:25:22;13.00;;;10.03;;
11731;SDS011;5922;53.734;10.258;2024-01-11T03:27:49;13.77;;;10.00;;
11731;SDS011;5922;53.734;10.258;2024-01-11T03:30:16;16.20;;;10.43;;
11731;SDS011;5922;53.734;10.258;2024-01-11T03:32:44;15.17;;;9.90;;
11731;SDS011;5922;53.734;10.258;2024-01-11T03:35:12;15.10;;;10.70;;
11731;SDS011;5922;53.734;10.258;2024-01-11T03:37:40;12.97;;;10.27;;
11731;SDS011;5922;53.734;10.258;2024-01-11T03:40:07;14.07;;;10.83;;
11731;SDS011;5922;53.734;10.258;2024-01-11T03:42:34;13.80;;;10.20;;
11731;SDS011;5922;53.734;10.258;2024-01-11T03:45:01;13.80;;;9.90;;
11731;SDS011;5922;53.734;10.258;2024-01-11T03:47:30;13.77;;;10.00;;
11731;SDS011;5922;53.734;10.258;2024-01-11T03:49:57;14.10;;;10.73;;
11731;SDS011;5922;53.734;10.258;2024-01-11T03:52:26;15.97;;;11.53;;
11731;SDS011;5922;53.734;10.258;2024-01-11T03:54:53;16.10;;;10.93;;
11731;SDS011;5922;53.734;10.258;2024-01-11T03:57:20;16.70;;;11.13;;
11731;SDS011;5922;53.734;10.258;2024-01-11T03:59:47;16.50;;;11.53;;
11731;SDS011;5922;53.734;10.258;2024-01-11T04:02:15;15.07;;;10.90;;
11731;SDS011;5922;53.734;10.258;2024-01-11T04:04:42;22.87;;;15.87;;
11731;SDS011;5922;53.734;10.258;2024-01-11T04:07:09;18.70;;;14.03;;
11731;SDS011;5922;53.734;10.258;2024-01-11T04:09:38;19.27;;;12.93;;
11731;SDS011;5922;53.734;10.258;2024-01-11T04:12:07;20.23;;;12.43;;
11731;SDS011;5922;53.734;10.258;2024-01-11T04:14:37;19.43;;;12.60;;
11731;SDS011;5922;53.734;10.258;2024-01-11T04:17:05;19.60;;;13.33;;
11731;SDS011;5922;53.734;10.258;2024-01-11T04:19:32;20.07;;;13.47;;
11731;SDS011;5922;53.734;10.258;2024-01-11T04:22:08;19.00;;;12.47;;
11731;SDS011;5922;53.734;10.258;2024-01-11T04:24:35;19.67;;;12.83;;
11731;SDS011;5922;53.734;10.258;2024-01-11T04:27:04;19.63;;;12.87;;
11731;SDS011;5922;53.734;10.258;2024-01-11T04:29:31;21.10;;;13.33;;
11731;SDS011;5922;53.734;10.258;2024-01-11T04:31:58;21.80;;;13.50;;
11731;SDS011;5922;53.734;10.258;2024-01-11T04:34:26;20.17;;;12.77;;
11731;SDS011;5922;53.734;10.258;2024-01-11T04:36:53;22.03;;;13.97;;
11731;SDS011;5922;53.734;10.258;2024-01-11T04:39:21;22.73;;;13.60;;
11731;SDS011;5922;53.734;10.258;2024-01-11T04:41:48;22.17;;;14.17;;
11731;SDS011;5922;53.734;10.258;2024-01-11T04:44:17;20.07;;;12.77;;
11731;SDS011;5922;53.734;10.258;2024-01-11T04:46:44;20.20;;;12.13;;
11731;SDS011;5922;53.734;10.258;2024-01-11T04:49:11;21.07;;;12.53;;
11731;SDS011;5922;53.734;10.258;2024-01-11T04:51:38;17.97;;;11.80;;
11731;SDS011;5922;53.734;10.258;2024-01-11T04:54:05;19.20;;;11.97;;
11731;SDS011;5922;53.734;10.258;2024-01-11T04:56:33;21.13;;;12.33;;
11731;SDS011;5922;53.734;10.258;2024-01-11T04:59:00;22.50;;;12.80;;
11731;SDS011;5922;53.734;10.258;2024-01-11T05:01:29;19.47;;;12.60;;
11731;SDS011;5922;53.734;10.258;2024-01-11T05:03:56;19.07;;;11.60;;
11731;SDS011;5922;53.734;10.258;2024-01-11T05:06:23;19.10;;;11.70;;
11731;SDS011;5922;53.734;10.258;2024-01-11T05:08:51;18.10;;;10.83;;
11731;SDS011;5922;53.734;10.258;2024-01-11T05:11:18;16.63;;;10.97;;
11731;SDS011;5922;53.734;10.258;2024-01-11T05:13:46;17.83;;;10.50;;
11731;SDS011;5922;53.734;10.258;2024-01-11T05:16:20;16.43;;;10.87;;
11731;SDS011;5922;53.734;10.258;2024-01-11T05:18:49;15.60;;;10.53;;
11731;SDS011;5922;53.734;10.258;2024-01-11T05:21:18;13.60;;;9.50;;
11731;SDS011;5922;53.734;10.258;2024-01-11T05:23:46;18.17;;;10.77;;
11731;SDS011;5922;53.734;10.258;2024-01-11T05:26:14;22.27;;;12.40;;
11731;SDS011;5922;53.734;10.258;2024-01-11T05:28:41;27.73;;;18.50;;
11731;SDS011;5922;53.734;10.258;2024-01-11T05:31:09;23.73;;;15.53;;
11731;SDS011;5922;53.734;10.258;2024-01-11T05:33:37;15.13;;;10.50;;
11731;SDS011;5922;53.734;10.258;2024-01-11T05:36:05;15.00;;;10.43;;
11731;SDS011;5922;53.734;10.258;2024-01-11T05:38:33;17.30;;;11.00;;
11731;SDS011;5922;53.734;10.258;2024-01-11T05:41:00;15.27;;;9.67;;
11731;SDS011;5922;53.734;10.258;2024-01-11T05:43:29;15.43;;;9.47;;
11731;SDS011;5922;53.734;10.258;2024-01-11T05:45:56;15.00;;;9.97;;
11731;SDS011;5922;53.734;10.258;2024-01-11T05:48:24;16.27;;;8.37;;
11731;SDS011;5922;53.734;10.258;2024-01-11T05:50:51;11.43;;;7.77;;
11731;SDS011;5922;53.734;10.258;2024-01-11T05:53:20;14.43;;;8.30;;
11731;SDS011;5922;53.734;10.258;2024-01-11T05:55:47;12.83;;;8.77;;
11731;SDS011;5922;53.734;10.258;2024-01-11T05:58:14;17.87;;;8.60;;
11731;SDS011;5922;53.734;10.258;2024-01-11T06:00:42;13.30;;;8.23;;
11731;SDS011;5922;53.734;10.258;2024-01-11T06:03:12;13.13;;;6.60;;
11731;SDS011;5922;53.734;10.258;2024-01-11T06:05:39;17.40;;;7.07;;
11731;SDS011;5922;53.734;10.258;2024-01-11T06:08:06;13.17;;;7.03;;
11731;SDS011;5922;53.734;10.258;2024-01-11T06:10:35;10.53;;;6.27;;
11731;SDS011;5922;53.734;10.258;2024-01-11T06:13:02;11.70;;;5.97;;
11731;SDS011;5922;53.734;10.258;2024-01-11T06:15:34;8.03;;;6.10;;
11731;SDS011;5922;53.734;10.258;2024-01-11T06:18:02;12.37;;;5.77;;
11731;SDS011;5922;53.734;10.258;2024-01-11T06:20:29;9.60;;;5.80;;
11731;SDS011;5922;53.734;10.258;2024-01-11T06:22:57;10.77;;;5.23;;
11731;SDS011;5922;53.734;10.258;2024-01-11T06:25:30;10.40;;;5.30;;
11731;SDS011;5922;53.734;10.258;2024-01-11T06:28:02;11.70;;;5.27;;
11731;SDS011;5922;53.734;10.258;2024-01-11T06:30:53;18.73;;;5.50;;
11731;SDS011;5922;53.734;10.258;2024-01-11T06:33:25;16.10;;;5.30;;
11731;SDS011;5922;53.734;10.258;2024-01-11T06:35:53;7.03;;;4.63;;
11731;SDS011;5922;53.734;10.258;2024-01-11T06:38:22;15.50;;;4.60;;
11731;SDS011;5922;53.734;10.258;2024-01-11T06:40:52;10.10;;;4.60;;
11731;SDS011;5922;53.734;10.258;2024-01-11T06:43:24;18.07;;;4.70;;
11731;SDS011;5922;53.734;10.258;2024-01-11T06:45:53;11.00;;;4.17;;
11731;SDS011;5922;53.734;10.258;2024-01-11T06:48:23;10.57;;;7.20;;
11731;SDS011;5922;53.734;10.258;2024-01-11T06:50:50;6.80;;;4.57;;
11731;SDS011;5922;53.734;10.258;2024-01-11T06:53:20;12.67;;;5.10;;
11731;SDS011;5922;53.734;10.258;2024-01-11T06:55:47;15.03;;;5.33;;
11731;SDS011;5922;53.734;10.258;2024-01-11T06:58:17;10.30;;;4.73;;
11731;SDS011;5922;53.734;10.258;2024-01-11T07:00:58;7.50;;;4.33;;
11731;SDS011;5922;53.734;10.258;2024-01-11T07:03:25;7.17;;;4.80;;
11731;SDS011;5922;53.734;10.258;2024-01-11T07:05:52;7.50;;;5.07;;
11731;SDS011;5922;53.734;10.258;2024-01-11T07:08:20;7.43;;;4.90;;
11731;SDS011;5922;53.734;10.258;2024-01-11T07:10:47;9.60;;;4.67;;
11731;SDS011;5922;53.734;10.258;2024-01-11T07:13:15;10.27;;;5.30;;
11731;SDS011;5922;53.734;10.258;2024-01-11T07:15:44;8.70;;;5.03;;
11731;SDS011;5922;53.734;10.258;2024-01-11T07:18:18;12.23;;;4.70;;
11731;SDS011;5922;53.734;10.258;2024-01-11T07:20:45;11.70;;;5.93;;
11731;SDS011;5922;53.734;10.258;2024-01-11T07:23:15;13.87;;;5.27;;
11731;SDS011;5922;53.734;10.258;2024-01-11T07:25:47;11.57;;;5.80;;
11731;SDS011;5922;53.734;10.258;2024-01-11T07:28:14;17.27;;;4.53;;
11731;SDS011;5922;53.734;10.258;2024-01-11T07:30:44;17.43;;;6.50;;
11731;SDS011;5922;53.734;10.258;2024-01-11T07:33:12;8.53;;;5.40;;
11731;SDS011;5922;53.734;10.258;2024-01-11T07:35:43;9.70;;;5.60;;
11731;SDS011;5922;53.734;10.258;2024-01-11T07:38:10;6.63;;;4.57;;
11731;SDS011;5922;53.734;10.258;2024-01-11T07:40:40;10.63;;;5.13;;
11731;SDS011;5922;53.734;10.258;2024-01-11T07:43:10;8.03;;;4.83;;
11731;SDS011;5922;53.734;10.258;2024-01-11T07:45:39;9.60;;;5.17;;
11731;SDS011;5922;53.734;10.258;2024-01-11T07:48:11;10.93;;;4.93;;
11731;SDS011;5922;53.734;10.258;2024-01-11T07:50:40;14.47;;;5.47;;
11731;SDS011;5922;53.734;10.258;2024-01-11T07:53:14;11.70;;;4.43;;
11731;SDS011;5922;53.734;10.258;2024-01-11T07:55:42;7.43;;;4.53;;
11731;SDS011;5922;53.734;10.258;2024-01-11T07:58:12;8.03;;;4.67;;
11731;SDS011;5922;53.734;10.258;2024-01-11T08:00:40;6.77;;;4.27;;
11731;SDS011;5922;53.734;10.258;2024-01-11T08:03:07;10.23;;;4.57;;
11731;SDS011;5922;53.734;10.258;2024-01-11T08:05:34;8.33;;;4.80;;
11731;SDS011;5922;53.734;10.258;2024-01-11T08:08:02;8.20;;;4.70;;
11731;SDS011;5922;53.734;10.258;2024-01-11T08:10:35;9.80;;;4.80;;
11731;SDS011;5922;53.734;10.258;2024-01-11T08:13:03;6.97;;;4.93;;
11731;SDS011;5922;53.734;10.258;2024-01-11T08:15:31;11.23;;;4.33;;
11731;SDS011;5922;53.734;10.258;2024-01-11T08:18:03;7.27;;;4.87;;
11731;SDS011;5922;53.734;10.258;2024-01-11T08:20:30;8.60;;;4.30;;
11731;SDS011;5922;53.734;10.258;2024-01-11T08:22:57;5.97;;;4.00;;
11731;SDS011;5922;53.734;10.258;2024-01-11T08:25:28;7.87;;;4.30;;
11731;SDS011;5922;53.734;10.258;2024-01-11T08:27:59;6.67;;;4.43;;
11731;SDS011;5922;53.734;10.258;2024-01-11T08:30:41;7.40;;;4.40;;
11731;SDS011;5922;53.734;10.258;2024-01-11T08:33:08;8.40;;;4.10;;
11731;SDS011;5922;53.734;10.258;2024-01-11T08:35:40;6.30;;;4.43;;
11731;SDS011;5922;53.734;10.258;2024-01-11T08:38:10;5.73;;;4.20;;
11731;SDS011;5922;53.734;10.258;2024-01-11T08:40:42;6.30;;;4.30;;
11731;SDS011;5922;53.734;10.258;2024-01-11T08:43:18;5.20;;;3.87;;
11731;SDS011;5922;53.734;10.258;2024-01-11T08:45:45;6.57;;;4.13;;
11731;SDS011;5922;53.734;10.258;2024-01-11T08:48:13;6.53;;;4.33;;
11731;SDS011;5922;53.734;10.258;2024-01-11T08:50:40;11.33;;;4.33;;
11731;SDS011;5922;53.734;10.258;2024-01-11T08:53:07;5.23;;;3.93;;
11731;SDS011;5922;53.734;10.258;2024-01-11T08:55:37;10.43;;;4.50;;
11731;SDS011;5922;53.734;10.258;2024-01-11T08:58:09;6.17;;;4.20;;
11731;SDS011;5922;53.734;10.258;2024-01-11T09:00:38;6.77;;;4.60;;
11731;SDS011;5922;53.734;10.258;2024-01-11T09:03:06;7.67;;;4.90;;
11731;SDS011;5922;53.734;10.258;2024-01-11T09:05:41;6.23;;;4.37;;
11731;SDS011;5922;53.734;10.258;2024-01-11T09:08:14;6.87;;;5.30;;
11731;SDS011;5922;53.734;10.258;2024-01-11T09:10:41;8.50;;;5.17;;
11731;SDS011;5922;53.734;10.258;2024-01-11T09:13:08;8.33;;;5.37;;
11731;SDS011;5922;53.734;10.258;2024-01-11T09:15:35;6.73;;;4.37;;
11731;SDS011;5922;53.734;10.258;2024-01-11T09:18:04;10.00;;;5.57;;
11731;SDS011;5922;53.734;10.258;2024-01-11T09:20:32;15.30;;;7.03;;
11731;SDS011;5922;53.734;10.258;2024-01-11T09:22:59;13.67;;;7.47;;
11731;SDS011;5922;53.734;10.258;2024-01-11T09:25:29;15.37;;;7.53;;
11731;SDS011;5922;53.734;10.258;2024-01-11T09:27:56;16.80;;;8.57;;
11731;SDS011;5922;53.734;10.258;2024-01-11T09:30:28;11.83;;;7.27;;
11731;SDS011;5922;53.734;10.258;2024-01-11T09:32:58;12.07;;;6.17;;
11731;SDS011;5922;53.734;10.258;2024-01-11T09:35:32;17.47;;;8.73;;
11731;SDS011;5922;53.734;10.258;2024-01-11T09:38:00;14.10;;;7.50;;
11731;SDS011;5922;53.734;10.258;2024-01-11T09:40:27;13.40;;;6.53;;
11731;SDS011;5922;53.734;10.258;2024-01-11T09:42:54;13.07;;;6.80;;
11731;SDS011;5922;53.734;10.258;2024-01-11T09:45:22;9.77;;;5.90;;
11731;SDS011;5922;53.734;10.258;2024-01-11T09:47:51;12.73;;;6.43;;
11731;SDS011;5922;53.734;10.258;2024-01-11T09:50:19;18.77;;;8.47;;
11731;SDS011;5922;53.734;10.258;2024-01-11T09:52:54;13.33;;;6.93;;
11731;SDS011;5922;53.734;10.258;2024-01-11T09:55:28;14.13;;;6.70;;
11731;SDS011;5922;53.734;10.258;2024-01-11T09:57:56;13.03;;;7.30;;
11731;SDS011;5922;53.734;10.258;2024-01-11T10:00:29;15.47;;;7.87;;
11731;SDS011;5922;53.734;10.258;2024-01-11T10:02:56;15.50;;;7.10;;
11731;SDS011;5922;53.734;10.258;2024-01-11T10:05:23;15.67;;;7.03;;
11731;SDS011;5922;53.734;10.258;2024-01-11T10:07:57;14.83;;;8.50;;
11731;SDS011;5922;53.734;10.258;2024-01-11T10:10:24;22.73;;;9.60;;
11731;SDS011;5922;53.734;10.258;2024-01-11T10:12:54;13.37;;;6.73;;
11731;SDS011;5922;53.734;10.258;2024-01-11T10:15:23;15.50;;;6.87;;
11731;SDS011;5922;53.734;10.258;2024-01-11T10:17:53;18.53;;;7.87;;
11731;SDS011;5922;53.734;10.258;2024-01-11T10:20:25;16.63;;;8.10;;
11731;SDS011;5922;53.734;10.258;2024-01-11T10:22:55;13.07;;;7.67;;
11731;SDS011;5922;53.734;10.258;2024-01-11T10:25:25;15.40;;;6.67;;
11731;SDS011;5922;53.734;10.258;2024-01-11T10:27:55;13.07;;;7.00;;
11731;SDS011;5922;53.734;10.258;2024-01-11T10:30:25;11.63;;;6.47;;
11731;SDS011;5922;53.734;10.258;2024-01-11T10:32:52;14.83;;;6.97;;
11731;SDS011;5922;53.734;10.258;2024-01-11T10:35:22;15.03;;;6.57;;
11731;SDS011;5922;53.734;10.258;2024-01-11T10:37:50;12.27;;;6.27;;
11731;SDS011;5922;53.734;10.258;2024-01-11T10:40:19;11.23;;;6.10;;
11731;SDS011;5922;53.734;10.258;2024-01-11T10:42:52;12.43;;;6.43;;
11731;SDS011;5922;53.734;10.258;2024-01-11T10:45:21;12.97;;;6.70;;
11731;SDS011;5922;53.734;10.258;2024-01-11T10:47:50;13.10;;;6.93;;
11731;SDS011;5922;53.734;10.258;2024-01-11T10:50:21;13.90;;;7.10;;
11731;SDS011;5922;53.734;10.258;2024-01-11T10:52:55;13.50;;;6.93;;
11731;SDS011;5922;53.734;10.258;2024-01-11T10:55:27;11.43;;;5.73;;
11731;SDS011;5922;53.734;10.258;2024-01-11T10:58:09;11.30;;;6.60;;
11731;SDS011;5922;53.734;10.258;2024-01-11T11:00:36;11.67;;;6.30;;
11731;SDS011;5922;53.734;10.258;2024-01-11T11:03:04;10.43;;;6.47;;
11731;SDS011;5922;53.734;10.258;2024-01-11T11:05:34;15.80;;;7.07;;
11731;SDS011;5922;53.734;10.258;2024-01-11T11:08:04;12.23;;;6.60;;
11731;SDS011;5922;53.734;10.258;2024-01-11T11:10:32;14.77;;;7.57;;
11731;SDS011;5922;53.734;10.258;2024-01-11T11:13:00;14.03;;;7.27;;
11731;SDS011;5922;53.734;10.258;2024-01-11T11:15:29;14.23;;;7.50;;
11731;SDS011;5922;53.734;10.258;2024-01-11T11:17:58;13.60;;;6.87;;
11731;SDS011;5922;53.734;10.258;2024-01-11T11:20:32;14.03;;;7.07;;
11731;SDS011;5922;53.734;10.258;2024-01-11T11:23:03;14.43;;;7.40;;
11731;SDS011;5922;53.734;10.258;2024-01-11T11:25:30;15.57;;;8.00;;
11731;SDS011;5922;53.734;10.258;2024-01-11T11:27:57;12.40;;;7.00;;
11731;SDS011;5922;53.734;10.258;2024-01-11T11:30:30;15.70;;;8.37;;
11731;SDS011;5922;53.734;10.258;2024-01-11T11:32:58;15.70;;;8.17;;
11731;SDS011;5922;53.734;10.258;2024-01-11T11:35:34;19.33;;;8.43;;
11731;SDS011;5922;53.734;10.258;2024-01-11T11:38:02;15.97;;;8.77;;
11731;SDS011;5922;53.734;10.258;2024-01-11T11:40:33;19.40;;;8.70;;
11731;SDS011;5922;53.734;10.258;2024-01-11T11:43:04;15.73;;;7.87;;
11731;SDS011;5922;53.734;10.258;2024-01-11T11:45:36;16.20;;;7.60;;
11731;SDS011;5922;53.734;10.258;2024-01-11T11:48:12;16.43;;;7.43;;
11731;SDS011;5922;53.734;10.258;2024-01-11T11:51:07;14.07;;;7.40;;
11731;SDS011;5922;53.734;10.258;2024-01-11T11:53:34;16.37;;;8.20;;
11731;SDS011;5922;53.734;10.258;2024-01-11T11:56:02;16.33;;;8.00;;
11731;SDS011;5922;53.734;10.258;2024-01-11T11:58:30;16.27;;;8.67;;
11731;SDS011;5922;53.734;10.258;2024-01-11T12:01:07;17.93;;;8.63;;
11731;SDS011;5922;53.734;10.258;2024-01-11T12:03:35;16.67;;;8.27;;
11731;SDS011;5922;53.734;10.258;2024-01-11T12:06:03;22.13;;;10.73;;
11731;SDS011;5922;53.734;10.258;2024-01-11T12:08:35;26.67;;;11.83;;
11731;SDS011;5922;53.734;10.258;2024-01-11T12:11:03;18.20;;;9.43;;
11731;SDS011;5922;53.734;10.258;2024-01-11T12:13:35;16.93;;;8.63;;
11731;SDS011;5922;53.734;10.258;2024-01-11T12:16:02;18.93;;;7.83;;
11731;SDS011;5922;53.734;10.258;2024-01-11T12:18:32;19.23;;;8.40;;
11731;SDS011;5922;53.734;10.258;2024-01-11T12:21:01;18.43;;;8.23;;
11731;SDS011;5922;53.734;10.258;2024-01-11T12:23:29;16.97;;;8.57;;
11731;SDS011;5922;53.734;10.258;2024-01-11T12:25:59;14.70;;;9.00;;
11731;SDS011;5922;53.734;10.258;2024-01-11T12:28:30;18.17;;;8.90;;
11731;SDS011;5922;53.734;10.258;2024-01-11T12:31:03;15.10;;;8.60;;
11731;SDS011;5922;53.734;10.258;2024-01-11T12:33:30;18.87;;;8.53;;
11731;SDS011;5922;53.734;10.258;2024-01-11T12:36:03;18.60;;;8.90;;
11731;SDS011;5922;53.734;10.258;2024-01-11T12:38:30;18.13;;;9.63;;
11731;SDS011;5922;53.734;10.258;2024-01-11T12:41:02;15.60;;;8.60;;
11731;SDS011;5922;53.734;10.258;2024-01-11T12:43:36;15.93;;;8.30;;
11731;SDS011;5922;53.734;10.258;2024-01-11T12:46:16;14.97;;;8.23;;
11731;SDS011;5922;53.734;10.258;2024-01-11T12:48:43;12.13;;;7.00;;
11731;SDS011;5922;53.734;10.258;2024-01-11T12:51:10;14.63;;;8.03;;
11731;SDS011;5922;53.734;10.258;2024-01-11T12:53:37;16.70;;;7.60;;
11731;SDS011;5922;53.734;10.258;2024-01-11T12:56:06;14.03;;;7.33;;
11731;SDS011;5922;53.734;10.258;2024-01-11T12:58:38;15.70;;;7.00;;
11731;SDS011;5922;53.734;10.258;2024-01-11T13:01:06;13.00;;;6.93;;
11731;SDS011;5922;53.734;10.258;2024-01-11T13:03:33;16.13;;;7.80;;
11731;SDS011;5922;53.734;10.258;2024-01-11T13:06:01;15.97;;;7.90;;
11731;SDS011;5922;53.734;10.258;2024-01-11T13:08:29;16.40;;;8.63;;
11731;SDS011;5922;53.734;10.258;2024-01-11T13:10:57;16.00;;;7.93;;
11731;SDS011;5922;53.734;10.258;2024-01-11T13:13:25;12.67;;;7.53;;
11731;SDS011;5922;53.734;10.258;2024-01-11T13:15:55;14.43;;;8.40;;
11731;SDS011;5922;53.734;10.258;2024-01-11T13:18:23;17.10;;;9.43;;
11731;SDS011;5922;53.734;10.258;2024-01-11T13:20:50;22.00;;;12.40;;
11731;SDS011;5922;53.734;10.258;2024-01-11T13:23:18;19.47;;;9.37;;
11731;SDS011;5922;53.734;10.258;2024-01-11T13:25:46;35.77;;;16.30;;
11731;SDS011;5922;53.734;10.258;2024-01-11T13:28:14;49.20;;;29.47;;
11731;SDS011;5922;53.734;10.258;2024-01-11T13:30:45;26.63;;;14.60;;
11731;SDS011;5922;53.734;10.258;2024-01-11T13:33:14;86.67;;;53.73;;
11731;SDS011;5922;53.734;10.258;2024-01-11T13:35:42;38.53;;;25.47;;
11731;SDS011;5922;53.734;10.258;2024-01-11T13:38:10;21.20;;;13.10;;
11731;SDS011;5922;53.734;10.258;2024-01-11T13:40:37;13.07;;;7.53;;
11731;SDS011;5922;53.734;10.258;2024-01-11T13:43:05;12.40;;;6.83;;
11731;SDS011;5922;53.734;10.258;2024-01-11T13:45:32;9.20;;;5.83;;
11731;SDS011;5922;53.734;10.258;2024-01-11T13:48:02;12.53;;;5.63;;
11731;SDS011;5922;53.734;10.258;2024-01-11T13:50:29;10.80;;;4.93;;
11731;SDS011;5922;53.734;10.258;2024-01-11T13:52:57;10.83;;;5.20;;
11731;SDS011;5922;53.734;10.258;2024-01-11T13:55:24;8.27;;;4.77;;
11731;SDS011;5922;53.734;10.258;2024-01-11T13:57:52;11.37;;;4.70;;
11731;SDS011;5922;53.734;10.258;2024-01-11T14:00:21;7.30;;;4.40;;
11731;SDS011;5922;53.734;10.258;2024-01-11T14:02:49;11.57;;;4.77;;
11731;SDS011;5922;53.734;10.258;2024-01-11T14:05:17;11.30;;;4.70;;
11731;SDS011;5922;53.734;10.258;2024-01-11T14:07:47;13.93;;;5.27;;
11731;SDS011;5922;53.734;10.258;2024-01-11T14:10:23;10.10;;;4.80;;
11731;SDS011;5922;53.734;10.258;2024-01-11T14:12:50;11.00;;;5.20;;
11731;SDS011;5922;53.734;10.258;2024-01-11T14:15:17;14.60;;;5.27;;
11731;SDS011;5922;53.734;10.258;2024-01-11T14:17:45;9.23;;;4.13;;
11731;SDS011;5922;53.734;10.258;2024-01-11T14:20:13;8.20;;;4.50;;
11731;SDS011;5922;53.734;10.258;2024-01-11T14:22:42;11.80;;;4.70;;
11731;SDS011;5922;53.734;10.258;2024-01-11T14:25:12;10.33;;;4.90;;
11731;SDS011;5922;53.734;10.258;2024-01-11T14:27:39;11.60;;;4.60;;
11731;SDS011;5922;53.734;10.258;2024-01-11T14:30:07;12.23;;;4.83;;
11731;SDS011;5922;53.734;10.258;2024-01-11T14:32:34;8.83;;;4.43;;
11731;SDS011;5922;53.734;10.258;2024-01-11T14:35:02;11.20;;;4.40;;
11731;SDS011;5922;53.734;10.258;2024-01-11T14:37:30;11.53;;;6.27;;
11731;SDS011;5922;53.734;10.258;2024-01-11T14:40:01;10.93;;;6.03;;